Time;durP1;ratioP1;P1;durP2;ratioP2;P2;SDS_P1;SDS_P2;PMS_P1;PMS_P2;Temp;Humidity;BMP_temperature;BMP_pressure;BME280_temperature;BME280_humidity;BME280_pressure;Samples;Min_cycle;Max_cycle;Signal;HPM_P1;HPM_P2
2022/05/04 00:00:30;;;;;;;12.85;2.70;;;8.10;99.90;;;;;;5035563;28;20053;-83
2022/05/04 00:02:56;;;;;;;13.80;3.15;;;8.30;99.90;;;;;;5051939;28;20410;-84
2022/05/04 00:05:22;;;;;;;15.13;2.88;;;8.10;99.90;;;;;;5019476;28;20059;-83
2022/05/04 00:07:48;;;;;;;14.25;2.65;;;8.10;99.90;;;;;;5054396;28;20045;-83
2022/05/04 00:10:13;;;;;;;17.50;3.05;;;8.10;99.90;;;;;;5054232;28;20391;-83
2022/05/04 00:12:39;;;;;;;9.63;2.63;;;8.10;99.90;;;;;;5036210;28;20048;-83
2022/05/04 00:15:09;;;;;;;10.38;2.33;;;8.00;99.90;;;;;;5054811;28;20103;-83
2022/05/04 00:17:34;;;;;;;10.32;2.75;;;8.00;99.90;;;;;;5054997;28;20041;-83
2022/05/04 00:20:00;;;;;;;12.75;2.83;;;8.20;99.90;;;;;;5055497;28;20414;-85
2022/05/04 00:22:26;;;;;;;10.32;2.40;;;8.10;99.90;;;;;;5036979;28;20131;-86
2022/05/04 00:24:52;;;;;;;13.63;2.92;;;8.00;99.90;;;;;;5036569;28;20041;-83
2022/05/04 00:27:18;;;;;;;17.95;3.10;;;8.00;99.90;;;;;;5053932;28;20057;-83
2022/05/04 00:29:45;;;;;;;13.93;3.20;;;8.00;99.90;;;;;;5036785;28;20398;-83
2022/05/04 00:32:12;;;;;;;12.48;3.45;;;8.00;99.90;;;;;;5052032;28;20453;-85
2022/05/04 00:34:38;;;;;;;10.52;3.65;;;7.90;99.90;;;;;;5036410;28;20065;-83
2022/05/04 00:37:05;;;;;;;18.08;3.35;;;8.00;99.90;;;;;;5053696;28;20049;-83
2022/05/04 00:39:34;;;;;;;9.55;2.53;;;7.90;99.90;;;;;;5053275;28;20041;-84
2022/05/04 00:42:14;;;;;;;14.75;2.75;;;7.90;99.90;;;;;;5052889;28;20425;-83
2022/05/04 00:44:41;;;;;;;14.07;2.90;;;7.90;99.90;;;;;;5035549;28;20124;-84
2022/05/04 00:47:08;;;;;;;13.85;2.97;;;8.10;99.90;;;;;;5052714;28;20099;-83
2022/05/04 00:49:34;;;;;;;11.82;3.00;;;7.90;99.90;;;;;;5034945;28;20330;-84
2022/05/04 00:52:02;;;;;;;15.27;3.22;;;7.90;99.90;;;;;;5051866;28;20048;-86
2022/05/04 00:54:27;;;;;;;14.75;3.33;;;8.20;99.90;;;;;;5035071;28;20106;-83
2022/05/04 00:56:54;;;;;;;15.45;3.03;;;7.90;99.90;;;;;;5034864;28;20437;-83
2022/05/04 00:59:21;;;;;;;9.85;3.00;;;7.90;99.90;;;;;;5052305;28;20136;-83
2022/05/04 01:01:47;;;;;;;11.55;2.83;;;7.90;99.90;;;;;;5052193;28;20049;-83
2022/05/04 01:04:13;;;;;;;8.20;2.63;;;7.90;99.90;;;;;;5035006;28;20083;-83
2022/05/04 01:06:39;;;;;;;13.77;3.47;;;7.90;99.90;;;;;;5034844;28;20044;-83
2022/05/04 01:09:05;;;;;;;10.60;3.08;;;7.90;99.90;;;;;;5052270;28;20090;-84
2022/05/04 01:11:30;;;;;;;10.55;3.08;;;8.10;99.90;;;;;;5052125;28;20453;-83
2022/05/04 01:14:04;;;;;;;13.55;3.20;;;7.90;99.90;;;;;;5034915;28;20086;-83
2022/05/04 01:16:30;;;;;;;13.88;3.05;;;7.90;99.90;;;;;;5051989;28;20051;-83
2022/05/04 01:18:58;;;;;;;12.25;3.03;;;7.90;99.90;;;;;;5052530;28;20041;-82
2022/05/04 01:21:24;;;;;;;13.52;2.92;;;8.00;99.90;;;;;;5051393;28;20084;-84
2022/05/04 01:23:50;;;;;;;13.35;2.78;;;7.90;99.90;;;;;;5055331;28;20130;-83
2022/05/04 01:26:16;;;;;;;15.27;3.08;;;7.80;99.90;;;;;;5056044;28;20045;-83
2022/05/04 01:28:43;;;;;;;14.32;3.00;;;7.80;99.90;;;;;;5038290;28;20041;-83
2022/05/04 01:31:09;;;;;;;13.43;3.28;;;7.80;99.90;;;;;;5054826;28;20052;-82
2022/05/04 01:33:35;;;;;;;13.82;3.38;;;7.90;99.90;;;;;;5055938;28;20056;-83
2022/05/04 01:36:01;;;;;;;12.10;3.13;;;7.80;99.90;;;;;;5055916;28;20051;-83
2022/05/04 01:38:29;;;;;;;8.55;3.00;;;7.80;99.90;;;;;;5056050;28;20071;-83
2022/05/04 01:40:55;;;;;;;11.48;3.25;;;7.70;99.90;;;;;;5055849;28;20055;-83
2022/05/04 01:43:21;;;;;;;12.43;2.70;;;7.70;99.90;;;;;;5037718;28;20057;-83
2022/05/04 01:45:47;;;;;;;16.90;3.08;;;7.70;99.90;;;;;;5037806;28;20053;-83
2022/05/04 01:48:12;;;;;;;8.10;2.97;;;7.70;99.90;;;;;;5055758;28;20052;-82
2022/05/04 01:50:38;;;;;;;13.93;2.83;;;7.70;99.90;;;;;;5055723;28;20049;-83
2022/05/04 01:53:04;;;;;;;13.52;2.83;;;7.60;99.90;;;;;;5055679;28;20052;-83
2022/05/04 01:55:33;;;;;;;14.02;2.95;;;7.70;99.90;;;;;;5037979;28;20141;-83
2022/05/04 01:57:59;;;;;;;10.40;2.70;;;7.70;99.90;;;;;;5054481;28;20399;-83
2022/05/04 02:00:25;;;;;;;8.50;2.83;;;7.60;99.90;;;;;;5055436;28;20045;-85
2022/05/04 02:02:52;;;;;;;15.38;3.20;;;7.60;99.90;;;;;;5055802;28;20056;-83
2022/05/04 02:05:18;;;;;;;10.32;3.17;;;7.60;99.90;;;;;;5037921;28;20045;-83
2022/05/04 02:07:44;;;;;;;13.30;2.55;;;7.60;99.90;;;;;;5037192;28;20052;-83
2022/05/04 02:10:11;;;;;;;16.85;2.95;;;7.60;99.90;;;;;;5055274;28;20616;-83
2022/05/04 02:12:37;;;;;;;16.75;3.63;;;7.50;99.90;;;;;;5054261;28;20056;-83
2022/05/04 02:15:08;;;;;;;11.88;3.58;;;7.50;99.90;;;;;;5037587;28;20049;-85
2022/05/04 02:17:34;;;;;;;17.83;3.13;;;7.50;99.90;;;;;;5055031;28;20052;-87
2022/05/04 02:20:00;;;;;;;11.50;3.15;;;7.40;99.90;;;;;;5055467;28;20057;-83
2022/05/04 02:22:26;;;;;;;11.30;3.00;;;7.40;99.90;;;;;;5021048;28;20206;-83
2022/05/04 02:24:52;;;;;;;14.27;2.90;;;7.40;99.90;;;;;;5037262;28;20140;-83
2022/05/04 02:27:18;;;;;;;14.15;3.50;;;7.30;99.90;;;;;;5037464;28;20076;-83
2022/05/04 02:29:44;;;;;;;12.00;3.03;;;7.30;99.90;;;;;;5055382;28;20554;-83
2022/05/04 02:32:09;;;;;;;13.07;3.10;;;7.30;99.90;;;;;;5053612;28;20402;-83
2022/05/04 02:37:54;;;;;;;13.55;3.45;;;7.30;99.90;;;;;;5054829;28;20055;-84
2022/05/04 02:40:06;;;;;;;13.20;3.03;;;7.40;99.90;;;;;;5037038;28;20102;-83
2022/05/04 02:42:32;;;;;;;14.52;2.83;;;7.30;99.90;;;;;;5036328;28;20088;-84
2022/05/04 02:45:01;;;;;;;14.20;3.38;;;7.20;99.90;;;;;;5037170;28;20087;-84
2022/05/04 02:47:28;;;;;;;18.95;3.35;;;7.20;99.90;;;;;;5054481;28;20075;-84
2022/05/04 02:49:53;;;;;;;10.20;2.70;;;7.20;99.90;;;;;;5053333;28;20052;-84
2022/05/04 02:52:19;;;;;;;14.55;2.83;;;7.30;99.90;;;;;;5054548;28;20486;-83
2022/05/04 02:54:45;;;;;;;15.63;3.33;;;7.20;99.90;;;;;;5054282;28;20120;-83
2022/05/04 02:57:13;;;;;;;14.48;3.08;;;7.20;99.90;;;;;;5054251;28;20057;-83
2022/05/04 02:59:38;;;;;;;11.27;3.53;;;7.20;99.90;;;;;;5035882;28;20056;-83
2022/05/04 03:04:48;;;;;;;15.38;3.00;;;7.30;99.90;;;;;;5054440;28;20048;-83
2022/05/04 03:07:14;;;;;;;12.73;2.50;;;7.20;99.90;;;;;;5053287;28;20528;-83
2022/05/04 03:09:39;;;;;;;9.88;2.50;;;7.30;99.90;;;;;;5052610;28;20061;-85
2022/05/04 03:12:06;;;;;;;10.60;2.80;;;7.40;99.90;;;;;;5052555;28;20068;-83
2022/05/04 03:14:31;;;;;;;11.75;3.08;;;7.20;99.90;;;;;;5036871;28;20045;-83
2022/05/04 03:16:57;;;;;;;12.65;2.90;;;7.60;99.90;;;;;;5036672;28;20060;-83
2022/05/04 03:19:24;;;;;;;14.60;3.47;;;7.20;99.90;;;;;;5053975;28;20080;-82
2022/05/04 03:21:51;;;;;;;12.60;2.92;;;7.20;99.90;;;;;;5053970;28;20049;-83
2022/05/04 03:24:17;;;;;;;8.73;2.65;;;7.20;99.90;;;;;;5036009;28;20146;-83
2022/05/04 03:26:43;;;;;;;13.10;2.90;;;7.20;99.90;;;;;;5052455;28;20510;-83
2022/05/04 03:29:09;;;;;;;12.10;2.75;;;7.20;99.90;;;;;;5036037;28;20095;-83
2022/05/04 03:31:35;;;;;;;14.55;3.10;;;7.20;99.90;;;;;;5054051;28;20138;-83
2022/05/04 03:34:02;;;;;;;11.95;2.95;;;7.20;99.90;;;;;;5053801;28;20160;-83
2022/05/04 03:36:27;;;;;;;13.55;3.15;;;7.20;99.90;;;;;;5036357;28;20376;-83
2022/05/04 03:38:53;;;;;;;14.27;3.17;;;7.20;99.90;;;;;;5053332;28;20056;-83
2022/05/04 03:41:20;;;;;;;7.35;2.47;;;7.30;99.90;;;;;;5035589;28;20060;-85
2022/05/04 03:43:47;;;;;;;12.80;3.25;;;7.20;99.90;;;;;;5053688;28;20053;-83
2022/05/04 03:46:18;;;;;;;12.02;3.00;;;7.20;99.90;;;;;;5052759;28;20043;-83
2022/05/04 03:48:45;;;;;;;11.38;3.17;;;7.20;99.90;;;;;;5035965;28;20091;-85
2022/05/04 03:51:13;;;;;;;15.43;3.85;;;7.60;99.90;;;;;;5053359;28;20052;-83
2022/05/04 03:53:39;;;;;;;12.00;3.00;;;7.20;99.90;;;;;;5053091;28;20462;-86
2022/05/04 03:56:05;;;;;;;14.30;3.78;;;7.20;99.90;;;;;;5052732;28;20040;-83
2022/05/04 03:58:34;;;;;;;12.80;2.97;;;7.20;99.90;;;;;;5052854;28;20047;-83
2022/05/04 04:01:00;;;;;;;13.50;3.42;;;7.20;99.90;;;;;;5051561;28;20119;-85
2022/05/04 04:03:26;;;;;;;12.68;2.80;;;7.20;99.90;;;;;;5053223;28;20060;-83
2022/05/04 04:05:52;;;;;;;16.42;3.40;;;7.20;99.90;;;;;;5051964;28;20048;-83
2022/05/04 04:08:17;;;;;;;9.52;2.97;;;7.10;99.90;;;;;;5053005;28;20045;-83
2022/05/04 04:10:43;;;;;;;13.93;3.20;;;7.20;99.90;;;;;;5035085;28;20059;-83
2022/05/04 04:13:09;;;;;;;15.23;3.53;;;7.20;99.90;;;;;;5035378;28;20049;-82
2022/05/04 04:15:35;;;;;;;14.40;3.80;;;7.20;99.90;;;;;;5051515;28;20068;-83
2022/05/04 04:18:00;;;;;;;7.72;2.53;;;7.20;99.90;;;;;;5052832;28;20049;-83
2022/05/04 04:23:10;;;;;;;12.30;3.42;;;7.20;99.90;;;;;;5035158;28;20083;-82
2022/05/04 04:25:36;;;;;;;10.20;3.25;;;7.30;99.90;;;;;;5053196;28;20053;-84
2022/05/04 04:28:03;;;;;;;11.45;3.60;;;7.30;99.90;;;;;;5035610;28;20110;-83
2022/05/04 04:30:29;;;;;;;14.38;3.35;;;7.30;99.90;;;;;;5052977;28;20053;-83
2022/05/04 04:32:54;;;;;;;18.88;3.20;;;7.30;99.90;;;;;;5052797;28;20127;-83
2022/05/04 04:35:20;;;;;;;12.45;3.63;;;7.30;99.90;;;;;;5053249;28;20052;-83
2022/05/04 04:37:46;;;;;;;10.60;3.30;;;7.30;99.90;;;;;;5068659;28;20272;-83
2022/05/04 04:40:12;;;;;;;17.70;3.35;;;7.40;99.90;;;;;;5017403;28;20057;-83
2022/05/04 04:42:37;;;;;;;7.40;2.90;;;7.40;99.90;;;;;;5018542;28;20164;-83
2022/05/04 04:45:04;;;;;;;9.93;3.17;;;7.40;99.90;;;;;;5033990;28;20494;-84
2022/05/04 04:47:30;;;;;;;18.88;3.13;;;7.50;99.90;;;;;;5034849;28;20118;-83
2022/05/04 04:49:59;;;;;;;15.85;3.50;;;7.50;99.90;;;;;;5052417;28;20053;-83
2022/05/04 04:52:24;;;;;;;13.95;3.25;;;7.60;99.90;;;;;;5051769;28;20041;-82
2022/05/04 04:54:50;;;;;;;13.18;3.35;;;7.60;99.90;;;;;;5052077;28;20547;-83
2022/05/04 04:57:16;;;;;;;14.40;4.03;;;7.70;99.90;;;;;;5034936;28;20384;-83
2022/05/04 04:59:43;;;;;;;8.52;3.17;;;7.70;99.90;;;;;;5052316;28;20049;-83
2022/05/04 05:02:09;;;;;;;17.33;3.90;;;7.80;99.90;;;;;;5034803;28;20061;-82
2022/05/04 05:04:35;;;;;;;12.88;3.85;;;7.80;99.90;;;;;;5034425;28;20049;-83
2022/05/04 05:07:01;;;;;;;11.93;3.38;;;8.10;99.90;;;;;;5034881;28;20057;-83
2022/05/04 05:09:26;;;;;;;11.65;3.78;;;8.00;99.90;;;;;;5052653;28;20041;-83
2022/05/04 05:11:52;;;;;;;11.20;3.70;;;7.90;99.90;;;;;;5051875;28;20051;-82
2022/05/04 05:17:02;;;;;;;12.65;3.30;;;8.00;99.90;;;;;;5034681;28;20418;-84
2022/05/04 05:19:28;;;;;;;13.52;3.70;;;8.00;99.90;;;;;;5034285;28;20052;-82
2022/05/04 05:21:53;;;;;;;12.25;3.40;;;8.10;99.90;;;;;;5033721;28;20442;-83
2022/05/04 05:24:19;;;;;;;10.73;3.22;;;8.30;99.90;;;;;;5033832;28;20049;-83
2022/05/04 05:26:45;;;;;;;8.75;2.65;;;8.20;99.90;;;;;;5051401;28;20052;-82
2022/05/04 05:29:11;;;;;;;10.98;3.38;;;8.20;99.90;;;;;;5034623;28;20056;-82
2022/05/04 05:31:37;;;;;;;14.50;3.38;;;8.70;99.90;;;;;;5034453;28;20085;-84
2022/05/04 05:34:02;;;;;;;10.27;2.70;;;8.20;99.90;;;;;;5034379;28;20502;-82
2022/05/04 05:36:28;;;;;;;16.42;3.67;;;8.30;99.90;;;;;;5052106;28;20048;-82
2022/05/04 05:38:53;;;;;;;11.23;2.90;;;8.30;99.90;;;;;;5052081;28;20048;-83
2022/05/04 05:41:20;;;;;;;11.75;2.75;;;8.40;99.90;;;;;;5052008;28;20155;-83
2022/05/04 05:43:45;;;;;;;13.32;2.63;;;8.40;99.90;;;;;;5052216;28;20055;-83
2022/05/04 05:46:11;;;;;;;12.52;2.90;;;9.00;99.90;;;;;;5051891;28;20402;-82
2022/05/04 05:48:37;;;;;;;9.73;2.38;;;8.60;99.90;;;;;;5034205;28;20524;-83
2022/05/04 05:51:06;;;;;;;10.85;2.40;;;8.60;99.90;;;;;;5034403;28;20590;-84
2022/05/04 05:53:32;;;;;;;11.93;2.47;;;9.10;99.90;;;;;;5017638;28;20049;-84
2022/05/04 05:55:58;;;;;;;9.20;2.80;;;8.60;99.90;;;;;;5050595;28;20044;-83
2022/05/04 05:58:24;;;;;;;15.10;2.95;;;8.70;99.90;;;;;;5051919;28;20048;-83
2022/05/04 06:00:50;;;;;;;10.35;2.50;;;9.10;99.90;;;;;;5051515;28;20083;-84
2022/05/04 06:03:17;;;;;;;13.15;2.75;;;8.80;99.90;;;;;;5051717;28;20132;-83
2022/05/04 06:05:43;;;;;;;15.32;2.63;;;9.00;99.90;;;;;;5051923;28;20053;-83
2022/05/04 06:08:11;;;;;;;11.63;2.50;;;9.10;99.90;;;;;;5033604;28;20088;-83
2022/05/04 06:10:40;;;;;;;12.23;2.47;;;9.10;99.90;;;;;;5055033;28;20052;-82
2022/05/04 06:13:06;;;;;;;9.90;2.42;;;9.60;99.90;;;;;;5055443;28;20049;-83
2022/05/04 06:15:32;;;;;;;12.85;2.33;;;9.30;99.90;;;;;;5055356;28;20041;-83
2022/05/04 06:18:01;;;;;;;13.48;2.38;;;9.30;99.90;;;;;;5055087;28;20048;-84
2022/05/04 06:20:27;;;;;;;12.25;2.85;;;9.30;99.90;;;;;;5055283;28;20155;-83
2022/05/04 06:22:53;;;;;;;8.75;2.40;;;9.40;99.90;;;;;;5055106;28;20139;-83
2022/05/04 06:25:19;;;;;;;13.82;2.83;;;9.40;99.90;;;;;;5054911;28;20509;-83
2022/05/04 06:27:45;;;;;;;14.95;3.17;;;9.50;99.90;;;;;;5037576;28;20053;-83
2022/05/04 06:35:42;;;;;;;7.68;2.42;;;9.70;99.90;;;;;;5054647;28;20041;-83
2022/05/04 06:38:09;;;;;;;11.70;2.97;;;9.80;99.90;;;;;;5037199;28;20118;-83
2022/05/04 06:40:35;;;;;;;8.80;2.60;;;10.10;99.90;;;;;;5037410;28;20059;-83
2022/05/04 06:43:00;;;;;;;16.20;3.05;;;10.00;99.90;;;;;;5036185;28;20491;-84
2022/05/04 06:45:26;;;;;;;11.80;2.55;;;10.10;99.90;;;;;;5054842;28;20059;-84
2022/05/04 06:47:52;;;;;;;15.98;2.70;;;10.20;99.90;;;;;;5054291;28;20453;-83
2022/05/04 06:50:17;;;;;;;12.07;2.58;;;10.30;99.90;;;;;;5036798;28;20132;-83
2022/05/04 06:52:43;;;;;;;5.28;1.92;;;10.30;99.90;;;;;;5054173;28;20049;-84
2022/05/04 06:55:09;;;;;;;13.63;2.63;;;10.70;99.90;;;;;;5036988;28;20138;-84
2022/05/04 06:57:36;;;;;;;10.68;2.67;;;10.80;99.90;;;;;;5036828;28;20055;-84
2022/05/04 07:00:05;;;;;;;9.57;2.35;;;10.80;99.90;;;;;;5036887;28;20099;-83
2022/05/04 07:02:35;;;;;;;11.13;2.50;;;10.90;99.90;;;;;;5053023;28;20049;-84
2022/05/04 07:05:05;;;;;;;9.10;2.58;;;11.10;99.70;;;;;;5054270;28;20043;-84
2022/05/04 07:07:49;;;;;;;7.57;2.33;;;11.20;98.40;;;;;;5036998;28;20103;-85
2022/05/04 07:10:14;;;;;;;14.23;2.50;;;11.40;96.40;;;;;;5054427;28;20438;-83
2022/05/04 07:12:40;;;;;;;12.93;2.60;;;11.50;96.60;;;;;;5054224;28;20041;-83
2022/05/04 07:15:06;;;;;;;8.23;2.47;;;11.70;94.40;;;;;;5054118;28;20103;-83
2022/05/04 07:17:32;;;;;;;8.48;2.42;;;11.60;93.20;;;;;;5054024;28;20041;-84
2022/05/04 07:19:58;;;;;;;8.68;2.08;;;11.60;93.00;;;;;;5034698;28;20123;-83
2022/05/04 07:22:24;;;;;;;10.15;2.28;;;11.60;94.10;;;;;;5036665;28;20049;-83
2022/05/04 07:24:50;;;;;;;12.05;2.30;;;11.60;93.50;;;;;;5053838;28;20036;-84
2022/05/04 07:27:16;;;;;;;9.48;2.25;;;11.80;92.20;;;;;;5036232;28;20132;-83
2022/05/04 07:29:47;;;;;;;15.93;2.50;;;12.10;90.10;;;;;;5053820;28;20041;-83
2022/05/04 07:32:13;;;;;;;8.63;2.40;;;12.30;89.90;;;;;;5036486;28;20053;-84
2022/05/04 07:34:40;;;;;;;9.60;2.60;;;12.30;86.40;;;;;;5036548;28;20068;-84
2022/05/04 07:37:06;;;;;;;11.75;2.25;;;12.40;86.40;;;;;;5036315;28;20041;-88
2022/05/04 07:42:25;;;;;;;6.43;2.17;;;12.80;83.20;;;;;;5053622;28;20053;-83
2022/05/04 07:45:01;;;;;;;14.68;2.47;;;13.20;81.40;;;;;;5053398;28;20041;-85
2022/05/04 07:47:29;;;;;;;11.25;2.50;;;13.00;77.70;;;;;;5053252;28;20053;-83
2022/05/04 07:49:58;;;;;;;9.70;2.20;;;12.90;80.10;;;;;;5053153;28;20049;-85
2022/05/04 07:52:24;;;;;;;10.80;2.50;;;12.60;77.90;;;;;;5036019;28;20056;-84
2022/05/04 07:54:50;;;;;;;8.27;2.83;;;12.40;84.30;;;;;;5052420;28;20048;-83
2022/05/04 07:57:16;;;;;;;11.65;2.95;;;12.40;83.30;;;;;;5035861;28;20057;-87
2022/05/04 07:59:41;;;;;;;9.27;2.20;;;12.50;81.20;;;;;;5053112;28;20410;-84
2022/05/04 08:04:52;;;;;;;8.40;2.55;;;13.30;76.40;;;;;;5053355;28;20059;-84
2022/05/04 08:07:18;;;;;;;9.80;3.00;;;13.60;74.00;;;;;;5035685;28;20049;-85
2022/05/04 08:09:44;;;;;;;11.15;2.70;;;13.70;72.00;;;;;;5035596;28;20094;-84
2022/05/04 08:12:12;;;;;;;9.75;2.63;;;13.70;70.20;;;;;;5052966;28;20487;-84
2022/05/04 08:14:41;;;;;;;10.88;3.00;;;13.60;70.40;;;;;;5035404;28;20052;-84
2022/05/04 08:17:07;;;;;;;13.55;3.25;;;13.60;70.70;;;;;;5035082;28;20523;-84
2022/05/04 08:19:34;;;;;;;10.95;2.63;;;13.70;70.80;;;;;;5053077;28;20483;-84
2022/05/04 08:22:00;;;;;;;10.10;2.85;;;13.90;71.40;;;;;;5035492;28;20398;-85
2022/05/04 08:24:25;;;;;;;8.90;2.70;;;14.90;67.90;;;;;;5053188;28;20080;-85
2022/05/04 08:26:51;;;;;;;10.23;2.65;;;15.60;63.80;;;;;;5052751;28;20080;-84
2022/05/04 08:29:18;;;;;;;8.20;2.67;;;16.40;60.30;;;;;;5051641;28;20060;-85
2022/05/04 08:31:44;;;;;;;7.43;2.15;;;16.60;58.10;;;;;;5035033;28;20384;-85
2022/05/04 08:34:09;;;;;;;8.77;2.50;;;16.70;58.70;;;;;;5035221;28;20049;-84
2022/05/04 08:36:38;;;;;;;16.02;2.78;;;17.80;57.10;;;;;;5035204;28;20049;-84
2022/05/04 08:39:08;;;;;;;7.82;2.22;;;19.00;54.20;;;;;;5034932;28;20041;-84
2022/05/04 08:41:43;;;;;;;9.27;2.07;;;19.70;50.30;;;;;;5053002;28;20049;-86
2022/05/04 08:44:11;;;;;;;6.88;2.20;;;19.20;49.50;;;;;;5036147;28;20359;-85
2022/05/04 08:46:39;;;;;;;10.10;2.08;;;18.40;51.00;;;;;;5020110;28;20107;-85
2022/05/04 08:49:06;;;;;;;6.18;2.05;;;17.50;51.60;;;;;;5054684;28;20044;-84
2022/05/04 08:51:33;;;;;;;8.07;2.10;;;16.80;53.10;;;;;;5037273;28;20052;-85
2022/05/04 08:53:58;;;;;;;11.20;2.33;;;16.40;54.60;;;;;;5020307;28;20052;-84
2022/05/04 08:56:24;;;;;;;9.38;2.17;;;16.30;54.60;;;;;;5054835;28;20045;-84
2022/05/04 08:58:50;;;;;;;8.65;1.95;;;16.60;54.40;;;;;;5035656;28;20114;-84
2022/05/04 09:01:16;;;;;;;12.38;2.03;;;16.50;54.20;;;;;;5053478;28;20049;-83
2022/05/04 09:03:41;;;;;;;8.50;1.63;;;16.20;54.00;;;;;;5035983;28;20055;-84
2022/05/04 09:06:07;;;;;;;7.57;1.95;;;15.80;54.80;;;;;;5036348;28;20534;-83
2022/05/04 09:08:56;;;;;;;8.68;1.90;;;15.50;55.70;;;;;;5037709;28;20053;-85
2022/05/04 09:11:23;;;;;;;9.73;1.98;;;16.10;55.60;;;;;;5054269;28;20510;-84
2022/05/04 09:13:49;;;;;;;7.57;2.40;;;17.40;54.50;;;;;;5036737;28;20099;-83
2022/05/04 09:16:32;;;;;;;9.82;2.20;;;18.90;51.00;;;;;;5036630;28;20055;-84
2022/05/04 09:19:18;;;;;;;8.63;2.10;;;20.10;48.40;;;;;;5054416;28;20463;-86
2022/05/04 09:21:47;;;;;;;7.90;2.33;;;21.00;48.00;;;;;;5035386;28;20095;-87
2022/05/04 09:24:26;;;;;;;6.93;2.20;;;21.50;45.70;;;;;;5019180;28;20049;-85
2022/05/04 09:26:54;;;;;;;8.50;2.28;;;21.80;43.10;;;;;;5035408;28;20096;-85
2022/05/04 09:29:20;;;;;;;11.88;2.05;;;21.80;43.60;;;;;;5052830;28;20128;-84
2022/05/04 09:31:47;;;;;;;8.02;2.20;;;21.80;43.30;;;;;;5034782;28;20418;-85
2022/05/04 09:34:13;;;;;;;6.90;2.20;;;22.20;42.40;;;;;;5017254;28;20414;-85
2022/05/04 09:45:13;;;;;;;6.57;1.98;;;24.00;41.90;;;;;;5038399;28;20131;-84
2022/05/04 09:47:41;;;;;;;10.50;2.15;;;24.70;39.60;;;;;;5038066;28;20057;-86
2022/05/04 09:50:09;;;;;;;10.63;2.50;;;24.80;39.20;;;;;;5029937;28;20453;-85
2022/05/04 09:52:49;;;;;;;6.00;1.80;;;24.70;38.30;;;;;;5034593;28;20518;-85
2022/05/04 09:55:22;;;;;;;8.30;2.22;;;24.60;37.80;;;;;;5031190;28;20051;-86
2022/05/04 09:57:48;;;;;;;10.50;2.38;;;24.30;37.90;;;;;;5055641;28;20052;-87
2022/05/04 10:00:17;;;;;;;7.93;2.03;;;23.30;38.40;;;;;;5038105;28;20041;-85
2022/05/04 10:02:46;;;;;;;7.47;1.77;;;22.80;40.00;;;;;;5037855;28;20045;-85
2022/05/04 10:05:12;;;;;;;9.50;2.20;;;23.30;39.70;;;;;;5037948;28;20052;-85
2022/05/04 10:07:38;;;;;;;7.05;1.90;;;23.80;39.50;;;;;;5037863;28;20048;-87
2022/05/04 10:10:06;;;;;;;8.57;1.95;;;24.10;38.50;;;;;;5037836;28;20513;-85
2022/05/04 10:12:38;;;;;;;8.82;2.70;;;24.30;38.40;;;;;;5020879;28;20515;-87
2022/05/04 10:15:07;;;;;;;8.05;2.33;;;24.50;39.10;;;;;;5037169;28;20057;-85
2022/05/04 10:17:35;;;;;;;6.75;1.52;;;24.70;37.30;;;;;;5055456;28;20051;-87
2022/05/04 10:20:11;;;;;;;10.73;2.30;;;24.80;37.10;;;;;;5054525;28;20049;-85
2022/05/04 10:22:47;;;;;;;7.88;1.83;;;24.40;37.60;;;;;;5055056;28;20407;-86
2022/05/04 10:25:14;;;;;;;4.88;1.80;;;24.30;37.40;;;;;;5055167;28;20057;-86
2022/05/04 10:27:41;;;;;;;8.00;2.20;;;24.40;36.80;;;;;;5055096;28;20045;-86
2022/05/04 10:32:58;;;;;;;6.57;2.00;;;24.30;36.00;;;;;;5037261;28;20509;-86
2022/05/04 10:35:31;;;;;;;8.48;2.05;;;24.10;36.50;;;;;;5020984;28;20045;-85
2022/05/04 10:37:59;;;;;;;8.43;2.10;;;24.10;36.80;;;;;;5037623;28;20048;-85
2022/05/04 10:40:29;;;;;;;8.70;1.95;;;24.30;37.40;;;;;;5036733;28;20494;-85
2022/05/04 10:42:57;;;;;;;6.20;1.85;;;24.60;36.90;;;;;;5054926;28;20067;-88
2022/05/04 10:45:28;;;;;;;8.48;2.10;;;25.00;37.50;;;;;;5054879;28;20110;-85
2022/05/04 10:48:10;;;;;;;8.77;1.95;;;25.50;36.80;;;;;;5054686;28;20498;-85
2022/05/04 10:50:55;;;;;;;6.18;2.33;;;25.80;35.80;;;;;;5055152;28;20126;-91
2022/05/04 10:53:23;;;;;;;8.73;2.35;;;25.90;35.10;;;;;;5036986;28;20100;-84
2022/05/04 10:56:05;;;;;;;9.13;1.87;;;25.90;34.90;;;;;;5034619;28;20053;-83
2022/05/04 10:58:31;;;;;;;9.07;2.50;;;26.00;36.30;;;;;;5054795;28;20048;-84
2022/05/04 11:01:10;;;;;;;6.30;1.90;;;26.10;36.10;;;;;;5020546;28;20099;-85
2022/05/04 11:03:38;;;;;;;8.40;2.15;;;26.20;35.00;;;;;;5036851;28;20061;-84
2022/05/04 11:06:09;;;;;;;7.20;1.88;;;26.30;34.90;;;;;;5054531;28;20080;-85
2022/05/04 11:08:36;;;;;;;8.35;2.08;;;26.60;35.40;;;;;;5020193;28;20051;-86
2022/05/04 11:11:03;;;;;;;8.27;2.33;;;26.90;36.00;;;;;;5036405;28;20091;-84
2022/05/04 11:13:31;;;;;;;10.68;2.03;;;27.40;35.50;;;;;;5054372;28;20172;-83
2022/05/04 11:16:00;;;;;;;6.47;1.90;;;27.40;35.90;;;;;;5053443;28;20053;-84
2022/05/04 11:18:27;;;;;;;9.02;2.33;;;27.30;34.10;;;;;;5036592;28;20049;-83
2022/05/04 11:20:54;;;;;;;7.88;2.33;;;27.40;34.00;;;;;;5036504;28;20045;-83
2022/05/04 11:23:24;;;;;;;6.38;2.40;;;27.40;34.20;;;;;;5036550;28;20052;-84
2022/05/04 11:25:50;;;;;;;8.55;2.13;;;26.80;34.30;;;;;;5054155;28;20395;-83
2022/05/04 11:28:34;;;;;;;7.43;2.00;;;25.90;34.50;;;;;;5036547;28;20075;-84
2022/05/04 11:30:59;;;;;;;7.88;2.10;;;25.20;35.70;;;;;;5036429;28;20045;-84
2022/05/04 11:33:26;;;;;;;9.93;2.60;;;24.60;36.30;;;;;;5036482;28;20560;-83
2022/05/04 11:35:54;;;;;;;7.82;2.30;;;24.20;37.30;;;;;;5036229;28;20044;-86
2022/05/04 11:38:21;;;;;;;8.57;2.72;;;24.30;37.80;;;;;;5053560;28;20055;-83
2022/05/04 11:40:48;;;;;;;4.65;2.13;;;24.90;37.40;;;;;;5035700;28;20399;-85
2022/05/04 11:43:33;;;;;;;9.13;2.63;;;25.60;36.50;;;;;;5053875;28;20045;-84
2022/05/04 11:46:06;;;;;;;6.75;1.73;;;25.90;35.10;;;;;;5052825;28;20127;-83
2022/05/04 11:48:35;;;;;;;8.68;2.13;;;25.80;35.20;;;;;;5035369;28;20557;-85
2022/05/04 11:51:02;;;;;;;10.52;2.22;;;26.00;35.30;;;;;;5036376;28;20049;-84
2022/05/04 11:53:29;;;;;;;7.78;2.40;;;26.50;35.00;;;;;;5053955;28;20096;-84
2022/05/04 11:55:56;;;;;;;8.05;2.22;;;26.90;34.00;;;;;;5036060;28;20106;-84
2022/05/04 11:58:28;;;;;;;9.68;2.55;;;26.90;33.80;;;;;;5019358;28;20133;-83
2022/05/04 12:00:55;;;;;;;8.13;1.98;;;26.50;34.30;;;;;;5035991;28;20057;-85
2022/05/04 12:03:28;;;;;;;6.22;2.25;;;26.00;33.90;;;;;;5018619;28;20053;-83
2022/05/04 12:05:55;;;;;;;10.68;2.15;;;25.30;35.30;;;;;;5035046;28;20049;-83
2022/05/04 12:08:22;;;;;;;7.78;2.13;;;25.10;35.60;;;;;;5053139;28;20510;-85
2022/05/04 12:10:49;;;;;;;10.10;2.30;;;25.40;35.40;;;;;;5035668;28;20053;-83
2022/05/04 12:13:19;;;;;;;8.60;2.40;;;25.60;35.20;;;;;;5053109;28;20069;-84
2022/05/04 12:15:45;;;;;;;8.25;2.40;;;25.90;34.80;;;;;;5051768;28;20045;-85
2022/05/04 12:18:12;;;;;;;8.35;2.10;;;26.10;35.10;;;;;;5035268;28;20446;-83
2022/05/04 12:20:37;;;;;;;8.15;2.22;;;26.50;34.80;;;;;;5035423;28;20088;-83
2022/05/04 12:23:04;;;;;;;5.68;1.90;;;26.20;33.90;;;;;;5034667;28;20104;-83
2022/05/04 12:25:31;;;;;;;10.90;4.45;;;25.50;34.70;;;;;;5035450;28;20049;-85
2022/05/04 12:27:57;;;;;;;6.97;2.10;;;25.50;35.10;;;;;;5053103;28;20133;-85
2022/05/04 12:33:13;;;;;;;6.38;2.33;;;25.90;34.80;;;;;;5027711;28;20061;-84
2022/05/04 12:35:44;;;;;;;9.33;2.70;;;26.00;35.30;;;;;;5051598;28;20569;-85
2022/05/04 12:38:19;;;;;;;12.65;2.40;;;26.00;34.70;;;;;;5051170;28;20056;-85
2022/05/04 12:40:46;;;;;;;5.90;2.30;;;26.10;35.40;;;;;;5035065;28;20458;-87
2022/05/04 12:43:12;;;;;;;8.30;2.25;;;26.40;34.20;;;;;;5052503;28;20049;-84
2022/05/04 12:45:38;;;;;;;7.55;2.50;;;26.60;34.30;;;;;;5052845;28;20098;-85
2022/05/04 12:48:06;;;;;;;9.27;2.30;;;25.90;35.30;;;;;;5018298;28;20049;-88
2022/05/04 12:50:33;;;;;;;7.40;2.10;;;25.30;36.50;;;;;;5018027;28;20052;-85
2022/05/04 12:53:00;;;;;;;10.32;2.40;;;25.40;36.60;;;;;;5035148;28;20056;-85
2022/05/04 12:58:12;;;;;;;8.27;2.28;;;26.30;34.30;;;;;;5034602;28;20045;-84
2022/05/04 13:00:37;;;;;;;7.32;2.08;;;26.60;34.00;;;;;;5018100;28;20064;-85
2022/05/04 13:03:08;;;;;;;7.97;2.30;;;26.70;33.70;;;;;;5034842;28;20053;-85
2022/05/04 13:05:33;;;;;;;10.15;1.92;;;27.00;33.60;;;;;;5018492;28;20422;-86
2022/05/04 13:07:59;;;;;;;9.23;2.60;;;27.20;32.90;;;;;;5052414;28;20037;-84
2022/05/04 13:10:25;;;;;;;11.25;2.40;;;27.10;33.60;;;;;;5034680;28;20045;-85
2022/05/04 13:12:51;;;;;;;7.93;2.28;;;26.70;33.50;;;;;;5034761;28;20053;-84
2022/05/04 13:15:17;;;;;;;9.32;2.53;;;26.40;35.00;;;;;;5051402;28;20041;-85
2022/05/04 13:17:43;;;;;;;8.95;2.70;;;26.10;34.20;;;;;;5054345;28;20131;-88
2022/05/04 13:20:14;;;;;;;6.82;2.30;;;25.40;35.20;;;;;;5021612;28;20064;-85
2022/05/04 13:22:40;;;;;;;8.15;2.15;;;24.50;36.50;;;;;;5039104;28;20123;-85
2022/05/04 13:25:06;;;;;;;9.02;2.35;;;23.80;37.10;;;;;;5056233;28;20127;-86